Time;durP1;ratioP1;P1;durP2;ratioP2;P2;SDS_P1;SDS_P2;PMS_P1;PMS_P2;Temp;Humidity;BMP_temperature;BMP_pressure;BME280_temperature;BME280_humidity;BME280_pressure;Samples;Min_cycle;Max_cycle;Signal;HPM_P1;HPM_P2
2024/01/28 00:00:46;;;;;;;6.72;4.13;;;;;;;;;;5054927;28;20442;-79
2024/01/28 00:03:12;;;;;;;4.80;3.85;;;;;;;;;;5055088;28;20401;-80
2024/01/28 00:05:39;;;;;;;5.30;4.20;;;;;;;;;;5055236;28;20378;-79
2024/01/28 00:08:05;;;;;;;4.30;3.88;;;;;;;;;;5054394;28;20417;-81
2024/01/28 00:10:31;;;;;;;6.53;4.10;;;;;;;;;;5055173;28;20464;-80
2024/01/28 00:12:57;;;;;;;3.85;3.45;;;;;;;;;;5055204;28;20832;-79
2024/01/28 00:15:23;;;;;;;6.32;4.20;;;;;;;;;;5055006;28;20374;-80
2024/01/28 00:17:50;;;;;;;4.38;3.97;;;;;;;;;;5055439;28;20385;-80
2024/01/28 00:20:16;;;;;;;4.80;4.10;;;;;;;;;;5037224;28;20425;-80
2024/01/28 00:22:42;;;;;;;6.13;4.50;;;;;;;;;;5036694;28;20484;-80
2024/01/28 00:25:08;;;;;;;4.50;4.05;;;;;;;;;;5054746;28;20377;-79
2024/01/28 00:27:35;;;;;;;7.85;4.63;;;;;;;;;;5053913;28;20382;-80
2024/01/28 00:30:01;;;;;;;6.13;4.45;;;;;;;;;;5054339;28;20464;-79
2024/01/28 00:32:29;;;;;;;5.05;4.13;;;;;;;;;;5053884;28;20445;-79
2024/01/28 00:34:55;;;;;;;4.88;4.07;;;;;;;;;;5047319;28;20387;-80
2024/01/28 00:37:21;;;;;;;6.40;4.50;;;;;;;;;;5047882;28;20473;-80
2024/01/28 00:39:47;;;;;;;4.70;4.25;;;;;;;;;;5054025;28;20414;-80
2024/01/28 00:42:16;;;;;;;5.13;4.03;;;;;;;;;;5054129;28;20408;-79
2024/01/28 00:44:42;;;;;;;7.20;4.00;;;;;;;;;;5053809;28;20376;-80
2024/01/28 00:47:08;;;;;;;4.87;3.90;;;;;;;;;;5054104;28;20432;-80
2024/01/28 00:49:34;;;;;;;5.70;3.88;;;;;;;;;;5036030;28;20748;-79
2024/01/28 00:52:02;;;;;;;4.93;4.05;;;;;;;;;;5053996;28;20382;-79
2024/01/28 00:54:28;;;;;;;5.15;3.95;;;;;;;;;;5022809;28;20406;-80
2024/01/28 00:56:54;;;;;;;4.97;4.07;;;;;;;;;;5040392;28;20850;-80
2024/01/28 00:59:20;;;;;;;4.80;4.30;;;;;;;;;;5054201;28;20393;-79
2024/01/28 01:01:46;;;;;;;5.68;4.20;;;;;;;;;;5054068;28;20527;-79
2024/01/28 01:04:12;;;;;;;5.78;4.00;;;;;;;;;;5049488;28;20410;-79
2024/01/28 01:06:39;;;;;;;4.22;3.78;;;;;;;;;;5050146;28;20377;-79
2024/01/28 01:09:07;;;;;;;4.45;3.70;;;;;;;;;;5054265;28;20961;-79
2024/01/28 01:11:33;;;;;;;4.68;4.20;;;;;;;;;;5053905;28;20377;-79
2024/01/28 01:13:59;;;;;;;5.75;4.30;;;;;;;;;;5054227;28;20382;-79
2024/01/28 01:16:25;;;;;;;5.00;4.50;;;;;;;;;;5053754;28;20384;-79
2024/01/28 01:18:51;;;;;;;7.22;4.97;;;;;;;;;;5053313;28;20863;-79
2024/01/28 01:21:17;;;;;;;5.73;5.00;;;;;;;;;;5054258;28;20421;-79
2024/01/28 01:23:43;;;;;;;5.50;5.00;;;;;;;;;;5053674;28;20463;-79
2024/01/28 01:26:09;;;;;;;5.93;4.90;;;;;;;;;;5053656;28;20743;-79
2024/01/28 01:28:35;;;;;;;4.78;4.20;;;;;;;;;;5035807;28;20386;-79
2024/01/28 01:31:02;;;;;;;5.78;4.70;;;;;;;;;;5053952;28;20432;-80
2024/01/28 01:33:28;;;;;;;6.90;4.55;;;;;;;;;;5054220;28;20413;-79
2024/01/28 01:35:54;;;;;;;5.10;4.50;;;;;;;;;;5054130;28;20468;-79
2024/01/28 01:38:21;;;;;;;5.30;4.60;;;;;;;;;;5054107;28;20796;-79
2024/01/28 01:40:47;;;;;;;5.95;4.78;;;;;;;;;;5054355;28;20385;-81
2024/01/28 01:43:15;;;;;;;5.50;4.68;;;;;;;;;;5054105;28;20416;-79
2024/01/28 01:45:41;;;;;;;5.57;4.63;;;;;;;;;;5053690;28;20393;-79
2024/01/28 01:48:10;;;;;;;6.67;5.00;;;;;;;;;;5054699;28;20408;-79
2024/01/28 01:50:36;;;;;;;5.22;4.70;;;;;;;;;;5053378;28;20386;-79
2024/01/28 01:53:04;;;;;;;4.63;4.22;;;;;;;;;;5053462;28;20434;-79
2024/01/28 01:55:30;;;;;;;5.18;4.68;;;;;;;;;;5053671;28;20490;-79
2024/01/28 01:57:56;;;;;;;5.43;4.90;;;;;;;;;;5053225;28;20397;-79
2024/01/28 02:00:22;;;;;;;6.15;5.13;;;;;;;;;;5053123;28;20385;-79
2024/01/28 02:02:49;;;;;;;4.93;4.32;;;;;;;;;;5053230;28;20440;-80
2024/01/28 02:05:15;;;;;;;5.65;4.50;;;;;;;;;;5050035;28;20401;-79
2024/01/28 02:07:42;;;;;;;5.00;4.47;;;;;;;;;;5052604;28;20889;-79
2024/01/28 02:10:09;;;;;;;4.70;4.13;;;;;;;;;;5054294;28;20385;-79
2024/01/28 02:12:36;;;;;;;5.07;4.50;;;;;;;;;;5057328;28;20381;-79
2024/01/28 02:15:05;;;;;;;6.95;4.32;;;;;;;;;;5056847;28;20735;-79
2024/01/28 02:17:31;;;;;;;7.30;4.47;;;;;;;;;;5056907;28;20435;-80
2024/01/28 02:19:57;;;;;;;5.00;4.30;;;;;;;;;;5038869;28;20385;-80
2024/01/28 02:22:23;;;;;;;4.97;4.47;;;;;;;;;;5056940;28;21016;-79
2024/01/28 02:24:51;;;;;;;6.97;4.65;;;;;;;;;;5057163;28;20377;-79
2024/01/28 02:27:16;;;;;;;5.00;4.47;;;;;;;;;;5056767;28;20385;-79
2024/01/28 02:29:43;;;;;;;5.55;4.47;;;;;;;;;;5056896;28;20396;-79
2024/01/28 02:32:12;;;;;;;4.68;4.18;;;;;;;;;;5057254;28;20370;-79
2024/01/28 02:34:38;;;;;;;4.95;4.45;;;;;;;;;;5056550;28;20409;-80
2024/01/28 02:37:04;;;;;;;5.67;4.23;;;;;;;;;;5056479;28;20373;-79
2024/01/28 02:39:30;;;;;;;4.68;4.05;;;;;;;;;;5056860;28;20386;-79
2024/01/28 02:41:56;;;;;;;5.20;4.22;;;;;;;;;;5056595;28;20416;-79
2024/01/28 02:44:22;;;;;;;5.13;4.10;;;;;;;;;;5056442;28;20766;-79
2024/01/28 02:46:48;;;;;;;5.10;4.15;;;;;;;;;;5056366;28;20385;-80
2024/01/28 02:49:14;;;;;;;4.40;4.00;;;;;;;;;;5056970;28;20443;-79
2024/01/28 02:51:44;;;;;;;4.32;3.92;;;;;;;;;;5056562;28;20405;-79
2024/01/28 02:54:10;;;;;;;5.28;4.22;;;;;;;;;;5056733;28;20409;-81
2024/01/28 02:56:36;;;;;;;4.82;4.30;;;;;;;;;;5056779;28;20386;-79
2024/01/28 02:59:03;;;;;;;4.32;3.92;;;;;;;;;;5056332;28;20742;-79
2024/01/28 03:01:29;;;;;;;6.32;4.25;;;;;;;;;;5056010;28;20386;-79
2024/01/28 03:03:55;;;;;;;4.60;4.10;;;;;;;;;;5056108;28;20906;-79
2024/01/28 03:06:21;;;;;;;4.97;4.05;;;;;;;;;;5057004;28;20411;-80
2024/01/28 03:08:47;;;;;;;4.80;4.30;;;;;;;;;;5036654;28;20410;-79
2024/01/28 03:11:13;;;;;;;4.93;4.40;;;;;;;;;;5055949;28;20859;-79
2024/01/28 03:13:39;;;;;;;5.57;4.18;;;;;;;;;;5056394;28;20381;-79
2024/01/28 03:16:05;;;;;;;4.75;3.90;;;;;;;;;;5055592;28;20421;-80
2024/01/28 03:18:31;;;;;;;5.53;4.20;;;;;;;;;;5055178;28;20468;-79
2024/01/28 03:20:57;;;;;;;4.57;4.18;;;;;;;;;;5055284;28;20386;-79
2024/01/28 03:23:23;;;;;;;4.63;3.83;;;;;;;;;;5054772;28;20504;-79
2024/01/28 03:25:49;;;;;;;4.50;4.10;;;;;;;;;;5055798;28;20381;-79
2024/01/28 03:28:15;;;;;;;5.20;4.20;;;;;;;;;;5055575;28;20392;-80
2024/01/28 03:30:41;;;;;;;4.73;4.33;;;;;;;;;;5054936;28;20456;-79
2024/01/28 03:33:07;;;;;;;5.80;4.72;;;;;;;;;;5055470;28;20476;-79
2024/01/28 03:35:33;;;;;;;5.78;4.55;;;;;;;;;;5055916;28;20847;-79
2024/01/28 03:38:00;;;;;;;4.75;4.22;;;;;;;;;;5055327;28;20522;-79
2024/01/28 03:40:26;;;;;;;4.28;3.80;;;;;;;;;;5055834;28;20392;-79
2024/01/28 03:42:52;;;;;;;4.35;3.95;;;;;;;;;;5055305;28;20412;-79
2024/01/28 03:45:18;;;;;;;5.28;4.18;;;;;;;;;;5055402;28;20385;-80
2024/01/28 03:47:44;;;;;;;5.40;3.90;;;;;;;;;;5055191;28;20419;-79
2024/01/28 03:50:10;;;;;;;4.25;3.72;;;;;;;;;;5055348;28;20382;-79
2024/01/28 03:52:37;;;;;;;4.05;3.67;;;;;;;;;;5055337;28;20382;-79
2024/01/28 03:55:03;;;;;;;4.20;3.80;;;;;;;;;;5055349;28;20515;-79
2024/01/28 03:57:29;;;;;;;4.32;3.70;;;;;;;;;;5054741;28;20385;-79
2024/01/28 03:59:55;;;;;;;4.63;4.03;;;;;;;;;;5054681;28;20392;-79
2024/01/28 04:02:21;;;;;;;4.28;3.88;;;;;;;;;;5055349;28;20389;-79
2024/01/28 04:04:47;;;;;;;4.28;3.88;;;;;;;;;;5055010;28;20409;-79
2024/01/28 04:07:13;;;;;;;5.07;4.28;;;;;;;;;;5054934;28;20410;-79
2024/01/28 04:09:39;;;;;;;4.65;3.80;;;;;;;;;;5055009;28;20370;-79
2024/01/28 04:12:05;;;;;;;4.72;3.70;;;;;;;;;;5055420;28;20384;-78
2024/01/28 04:14:31;;;;;;;4.78;3.95;;;;;;;;;;5055322;28;20381;-79
2024/01/28 04:16:57;;;;;;;4.38;4.00;;;;;;;;;;5037278;28;20879;-79
2024/01/28 04:19:23;;;;;;;4.40;3.80;;;;;;;;;;5054954;28;20385;-79
2024/01/28 04:21:49;;;;;;;4.45;4.05;;;;;;;;;;5054750;28;20782;-79
2024/01/28 04:24:15;;;;;;;4.38;3.97;;;;;;;;;;5055226;28;20401;-80
2024/01/28 04:26:41;;;;;;;4.35;3.95;;;;;;;;;;5054637;28;20381;-79
2024/01/28 04:29:07;;;;;;;4.30;3.90;;;;;;;;;;5054107;28;20407;-81
2024/01/28 04:31:33;;;;;;;4.40;4.00;;;;;;;;;;5054499;28;20385;-79
2024/01/28 04:33:59;;;;;;;3.97;3.58;;;;;;;;;;5054240;28;20385;-79
2024/01/28 04:36:28;;;;;;;4.03;3.63;;;;;;;;;;5054658;28;20446;-80
2024/01/28 04:38:54;;;;;;;5.13;3.90;;;;;;;;;;5054713;28;20388;-79
2024/01/28 04:41:20;;;;;;;5.10;3.75;;;;;;;;;;5054799;28;20394;-79
2024/01/28 04:43:46;;;;;;;4.63;3.70;;;;;;;;;;5054234;28;20413;-79
2024/01/28 04:46:18;;;;;;;3.90;3.53;;;;;;;;;;5054500;28;20373;-79
2024/01/28 04:48:44;;;;;;;4.10;3.70;;;;;;;;;;5054713;28;20377;-79
2024/01/28 04:51:10;;;;;;;4.25;3.70;;;;;;;;;;5054231;28;20946;-78
2024/01/28 04:53:36;;;;;;;4.07;3.70;;;;;;;;;;5053815;28;20521;-78
2024/01/28 04:56:03;;;;;;;4.50;4.10;;;;;;;;;;5054175;28;20420;-78
2024/01/28 04:58:29;;;;;;;4.10;3.70;;;;;;;;;;5054376;28;20423;-79
2024/01/28 05:00:55;;;;;;;3.85;3.55;;;;;;;;;;5035778;28;20393;-79
2024/01/28 05:03:21;;;;;;;4.10;3.67;;;;;;;;;;5054257;28;20439;-79
2024/01/28 05:05:47;;;;;;;4.28;3.88;;;;;;;;;;5054103;28;20374;-78
2024/01/28 05:08:14;;;;;;;4.10;3.70;;;;;;;;;;5053949;28;20408;-79
2024/01/28 05:10:40;;;;;;;4.43;4.03;;;;;;;;;;5054695;28;20369;-78
2024/01/28 05:13:06;;;;;;;5.07;3.53;;;;;;;;;;5041329;28;20383;-80
2024/01/28 05:15:32;;;;;;;4.03;3.50;;;;;;;;;;5046333;28;20399;-79
2024/01/28 05:17:58;;;;;;;4.27;3.87;;;;;;;;;;5038648;28;20386;-79
2024/01/28 05:20:24;;;;;;;4.07;3.65;;;;;;;;;;5040810;28;20401;-78
2024/01/28 05:22:51;;;;;;;4.47;3.70;;;;;;;;;;5054759;28;20504;-79
2024/01/28 05:25:17;;;;;;;5.40;3.60;;;;;;;;;;5054848;28;20381;-78
2024/01/28 05:27:44;;;;;;;3.97;3.47;;;;;;;;;;5054830;28;20404;-79
2024/01/28 05:30:10;;;;;;;4.07;3.67;;;;;;;;;;5055318;28;20378;-78
2024/01/28 05:32:36;;;;;;;4.00;3.60;;;;;;;;;;5054498;28;20385;-78
2024/01/28 05:35:03;;;;;;;4.07;3.67;;;;;;;;;;5054482;28;20377;-81
2024/01/28 05:37:30;;;;;;;3.97;3.58;;;;;;;;;;5052179;28;20384;-78
2024/01/28 05:39:56;;;;;;;4.00;3.60;;;;;;;;;;5054220;28;20389;-78
2024/01/28 05:42:22;;;;;;;3.83;3.50;;;;;;;;;;5036087;28;20462;-78
2024/01/28 05:44:48;;;;;;;4.03;3.50;;;;;;;;;;5054537;28;20932;-80
2024/01/28 05:47:14;;;;;;;4.38;3.38;;;;;;;;;;5057730;28;20377;-78
2024/01/28 05:49:41;;;;;;;5.20;3.63;;;;;;;;;;5057978;28;20381;-78
2024/01/28 05:52:07;;;;;;;4.50;3.75;;;;;;;;;;5057678;28;20381;-78
2024/01/28 05:54:33;;;;;;;4.22;3.83;;;;;;;;;;5057885;28;20385;-78
2024/01/28 05:57:00;;;;;;;3.90;3.50;;;;;;;;;;5057809;28;20385;-79
2024/01/28 05:59:26;;;;;;;4.20;3.88;;;;;;;;;;5057528;28;20412;-79
2024/01/28 06:01:52;;;;;;;4.05;3.65;;;;;;;;;;5057994;28;20378;-78
2024/01/28 06:04:18;;;;;;;4.22;3.83;;;;;;;;;;5057371;28;20521;-78
2024/01/28 06:06:43;;;;;;;5.53;3.80;;;;;;;;;;5038953;28;20386;-78
2024/01/28 06:09:10;;;;;;;4.60;3.33;;;;;;;;;;5056355;28;20390;-79
2024/01/28 06:11:36;;;;;;;4.18;3.53;;;;;;;;;;5057790;28;20389;-78
2024/01/28 06:14:02;;;;;;;4.05;3.70;;;;;;;;;;5057664;28;20480;-78
2024/01/28 06:16:29;;;;;;;4.07;3.65;;;;;;;;;;5039214;28;20419;-78
2024/01/28 06:18:56;;;;;;;3.60;3.30;;;;;;;;;;5043040;28;20379;-80
2024/01/28 06:21:22;;;;;;;4.40;3.50;;;;;;;;;;5056779;28;20472;-80
2024/01/28 06:23:48;;;;;;;3.63;3.33;;;;;;;;;;5057071;28;20437;-78
2024/01/28 06:26:16;;;;;;;5.00;3.65;;;;;;;;;;5057088;28;20373;-78
2024/01/28 06:28:42;;;;;;;3.90;3.60;;;;;;;;;;5056776;28;20378;-80
2024/01/28 06:31:08;;;;;;;4.82;3.63;;;;;;;;;;5056053;28;20415;-79
2024/01/28 06:33:35;;;;;;;4.00;3.60;;;;;;;;;;5056319;28;20389;-80
2024/01/28 06:36:01;;;;;;;4.32;3.42;;;;;;;;;;5057658;28;20409;-81
2024/01/28 06:38:27;;;;;;;3.95;3.42;;;;;;;;;;5057699;28;20439;-81
2024/01/28 06:40:55;;;;;;;4.13;3.40;;;;;;;;;;5039119;28;20736;-81
2024/01/28 06:43:22;;;;;;;4.22;3.83;;;;;;;;;;5057429;28;20431;-82
2024/01/28 06:45:48;;;;;;;4.57;3.63;;;;;;;;;;5059814;28;20377;-82
2024/01/28 06:48:15;;;;;;;4.75;4.20;;;;;;;;;;5062076;28;20392;-82
2024/01/28 06:50:40;;;;;;;4.78;3.60;;;;;;;;;;5052865;28;20394;-82
2024/01/28 06:53:06;;;;;;;3.85;3.55;;;;;;;;;;5027386;28;20401;-82
2024/01/28 06:55:32;;;;;;;4.20;3.33;;;;;;;;;;5061591;28;20393;-82
2024/01/28 06:58:00;;;;;;;3.83;3.50;;;;;;;;;;5059071;28;20818;-79
2024/01/28 07:00:26;;;;;;;4.35;3.55;;;;;;;;;;5061850;28;20470;-80
2024/01/28 07:02:53;;;;;;;4.38;3.67;;;;;;;;;;5056729;28;20413;-81
2024/01/28 07:05:20;;;;;;;3.90;3.25;;;;;;;;;;5055091;28;20381;-82
2024/01/28 07:07:46;;;;;;;3.35;3.05;;;;;;;;;;5057889;28;20408;-80
2024/01/28 07:10:12;;;;;;;3.97;3.58;;;;;;;;;;5061069;28;20377;-80
2024/01/28 07:12:39;;;;;;;4.85;3.95;;;;;;;;;;5051624;28;20406;-83
2024/01/28 07:15:05;;;;;;;4.93;3.40;;;;;;;;;;5036611;28;20401;-81
2024/01/28 07:17:32;;;;;;;4.32;3.45;;;;;;;;;;5058252;28;20447;-80
2024/01/28 07:19:58;;;;;;;3.85;3.50;;;;;;;;;;5057927;28;20882;-80
2024/01/28 07:22:24;;;;;;;4.28;3.88;;;;;;;;;;5057098;28;20400;-80
2024/01/28 07:24:50;;;;;;;4.30;3.80;;;;;;;;;;5058219;28;20377;-82
2024/01/28 07:27:16;;;;;;;5.47;3.80;;;;;;;;;;5059274;28;20381;-82
2024/01/28 07:29:43;;;;;;;5.13;4.05;;;;;;;;;;5057413;28;20373;-81
2024/01/28 07:32:13;;;;;;;4.88;4.38;;;;;;;;;;5056799;28;20382;-83
2024/01/28 07:34:42;;;;;;;4.57;3.57;;;;;;;;;;5058859;28;20433;-82
2024/01/28 07:37:08;;;;;;;4.43;3.90;;;;;;;;;;5042139;28;20426;-82
2024/01/28 07:39:35;;;;;;;4.35;3.95;;;;;;;;;;5057987;28;20390;-82
2024/01/28 07:42:01;;;;;;;3.87;3.57;;;;;;;;;;5059346;28;20401;-81
2024/01/28 07:44:27;;;;;;;3.95;3.58;;;;;;;;;;5060453;28;20419;-82
2024/01/28 07:46:53;;;;;;;4.18;3.78;;;;;;;;;;5058735;28;20464;-82
2024/01/28 07:49:20;;;;;;;4.05;3.65;;;;;;;;;;5058009;28;20397;-82
2024/01/28 07:51:46;;;;;;;3.80;3.40;;;;;;;;;;5039097;28;20386;-82
2024/01/28 07:54:12;;;;;;;4.18;3.80;;;;;;;;;;5058794;28;20392;-81
2024/01/28 07:56:38;;;;;;;3.97;3.50;;;;;;;;;;5040950;28;20404;-82
2024/01/28 07:59:04;;;;;;;4.57;3.70;;;;;;;;;;5040749;28;20390;-82
2024/01/28 08:01:32;;;;;;;4.53;3.85;;;;;;;;;;5059541;28;20396;-82
2024/01/28 08:03:58;;;;;;;3.90;3.38;;;;;;;;;;5060139;28;20945;-83
2024/01/28 08:06:24;;;;;;;5.10;3.78;;;;;;;;;;5058021;28;20381;-82
2024/01/28 08:08:50;;;;;;;4.90;3.97;;;;;;;;;;5056481;28;20405;-81
2024/01/28 08:11:16;;;;;;;4.00;3.70;;;;;;;;;;5055639;28;20385;-82
2024/01/28 08:13:42;;;;;;;5.00;4.30;;;;;;;;;;5035748;28;20382;-81
2024/01/28 08:16:08;;;;;;;4.60;4.15;;;;;;;;;;5055076;28;20385;-80
2024/01/28 08:18:34;;;;;;;4.38;3.88;;;;;;;;;;5036279;28;20404;-80
2024/01/28 08:21:00;;;;;;;4.40;4.00;;;;;;;;;;5053967;28;20388;-81
2024/01/28 08:23:26;;;;;;;6.87;5.03;;;;;;;;;;5036257;28;20443;-81
2024/01/28 08:25:54;;;;;;;4.63;4.22;;;;;;;;;;5054577;28;20374;-81
2024/01/28 08:28:21;;;;;;;5.32;4.45;;;;;;;;;;5053835;28;20386;-83
2024/01/28 08:30:47;;;;;;;5.20;4.68;;;;;;;;;;5053098;28;20382;-81
2024/01/28 08:33:13;;;;;;;5.07;4.57;;;;;;;;;;5054354;28;20389;-82
2024/01/28 08:35:39;;;;;;;4.93;4.43;;;;;;;;;;5054422;28;20392;-82
2024/01/28 08:38:05;;;;;;;4.97;4.57;;;;;;;;;;5054081;28;20382;-82
2024/01/28 08:40:31;;;;;;;4.85;4.43;;;;;;;;;;5053245;28;20385;-82
2024/01/28 08:42:57;;;;;;;5.85;5.32;;;;;;;;;;5035724;28;20406;-82
2024/01/28 08:45:23;;;;;;;6.05;5.45;;;;;;;;;;5053109;28;20865;-81
2024/01/28 08:47:50;;;;;;;5.65;5.15;;;;;;;;;;5052562;28;20385;-81
2024/01/28 08:50:16;;;;;;;5.57;5.10;;;;;;;;;;5052701;28;20405;-81
2024/01/28 08:52:43;;;;;;;5.72;5.18;;;;;;;;;;5053030;28;20882;-82
2024/01/28 08:55:09;;;;;;;6.38;5.68;;;;;;;;;;5052878;28;20392;-81
2024/01/28 08:57:35;;;;;;;6.55;5.68;;;;;;;;;;5053315;28;20377;-81
2024/01/28 09:00:01;;;;;;;7.22;6.53;;;;;;;;;;5053127;28;20388;-81
2024/01/28 09:02:28;;;;;;;7.70;7.00;;;;;;;;;;5052999;28;20443;-80
2024/01/28 09:04:53;;;;;;;7.57;6.88;;;;;;;;;;5052528;28;20392;-80
2024/01/28 09:07:19;;;;;;;11.10;7.13;;;;;;;;;;5051971;28;20413;-80
2024/01/28 09:09:45;;;;;;;7.57;6.88;;;;;;;;;;5050889;28;20424;-81
2024/01/28 09:12:11;;;;;;;8.32;7.43;;;;;;;;;;5052588;28;20389;-82
2024/01/28 09:14:37;;;;;;;9.23;8.33;;;;;;;;;;5052054;28;20468;-81
2024/01/28 09:17:03;;;;;;;9.93;8.52;;;;;;;;;;5052523;28;20389;-81
2024/01/28 09:19:29;;;;;;;12.55;10.10;;;;;;;;;;5038725;28;20374;-81
2024/01/28 09:21:55;;;;;;;13.23;11.18;;;;;;;;;;5052806;28;20384;-81
2024/01/28 09:24:21;;;;;;;16.27;12.73;;;;;;;;;;5052518;28;20478;-82
2024/01/28 09:26:47;;;;;;;14.70;12.40;;;;;;;;;;5053652;28;20381;-81
2024/01/28 09:29:14;;;;;;;13.25;11.95;;;;;;;;;;5054394;28;20381;-83
2024/01/28 09:31:44;;;;;;;17.83;13.40;;;;;;;;;;5053202;28;20456;-81
2024/01/28 09:34:10;;;;;;;15.27;11.68;;;;;;;;;;5034615;28;20393;-81
2024/01/28 09:36:36;;;;;;;15.70;13.50;;;;;;;;;;5052349;28;20952;-80
2024/01/28 09:39:02;;;;;;;17.10;13.48;;;;;;;;;;5051761;28;20385;-81
2024/01/28 09:41:37;;;;;;;19.10;13.77;;;;;;;;;;5033802;28;20771;-82
2024/01/28 09:44:04;;;;;;;14.80;13.18;;;;;;;;;;5051200;28;20454;-81
2024/01/28 09:46:30;;;;;;;17.25;13.20;;;;;;;;;;5051986;28;20388;-81
2024/01/28 09:48:57;;;;;;;16.05;13.63;;;;;;;;;;5051962;28;20480;-82
2024/01/28 09:51:23;;;;;;;16.83;12.90;;;;;;;;;;5051648;28;20377;-81
2024/01/28 09:53:49;;;;;;;12.15;10.95;;;;;;;;;;5051941;28;20381;-82
2024/01/28 09:56:16;;;;;;;14.80;11.70;;;;;;;;;;5050932;28;20393;-83
2024/01/28 09:58:43;;;;;;;14.13;12.40;;;;;;;;;;5033432;28;20862;-82
2024/01/28 10:01:11;;;;;;;11.68;10.35;;;;;;;;;;5051743;28;20438;-83
2024/01/28 10:03:37;;;;;;;11.43;10.32;;;;;;;;;;5033615;28;20475;-83
2024/01/28 10:06:04;;;;;;;16.20;11.82;;;;;;;;;;5033685;28;20381;-82
2024/01/28 10:08:30;;;;;;;19.75;13.55;;;;;;;;;;5033120;28;20408;-82
2024/01/28 10:10:57;;;;;;;17.60;13.90;;;;;;;;;;5051921;28;20394;-83
2024/01/28 10:13:23;;;;;;;19.67;14.00;;;;;;;;;;5034070;28;20533;-82
2024/01/28 10:15:59;;;;;;;18.25;14.27;;;;;;;;;;5053320;28;20448;-83
2024/01/28 10:18:25;;;;;;;21.83;15.20;;;;;;;;;;5053286;28;20858;-83
2024/01/28 10:20:51;;;;;;;20.10;14.95;;;;;;;;;;5052524;28;20381;-83
2024/01/28 10:23:18;;;;;;;21.43;16.43;;;;;;;;;;5052080;28;20462;-83
2024/01/28 10:25:44;;;;;;;23.23;16.27;;;;;;;;;;5051884;28;20704;-83
2024/01/28 10:28:10;;;;;;;23.50;16.85;;;;;;;;;;5034025;28;20416;-82
2024/01/28 10:30:36;;;;;;;22.38;16.00;;;;;;;;;;5034348;28;20409;-82
2024/01/28 10:33:02;;;;;;;26.23;18.35;;;;;;;;;;5038261;28;20893;-84
2024/01/28 10:35:28;;;;;;;26.70;18.05;;;;;;;;;;5039003;28;20393;-84
2024/01/28 10:37:56;;;;;;;25.02;17.27;;;;;;;;;;5038847;28;20755;-84
2024/01/28 10:40:24;;;;;;;25.20;17.92;;;;;;;;;;5056754;28;20942;-83
2024/01/28 10:42:51;;;;;;;22.98;16.35;;;;;;;;;;5056831;28;20918;-83
2024/01/28 10:45:23;;;;;;;22.23;16.17;;;;;;;;;;5056791;28;20377;-84
2024/01/28 10:47:52;;;;;;;19.20;15.48;;;;;;;;;;5024628;28;20895;-83
2024/01/28 10:50:20;;;;;;;20.85;15.48;;;;;;;;;;5056729;28;20452;-83
2024/01/28 10:52:47;;;;;;;20.40;15.40;;;;;;;;;;5038949;28;20399;-84
2024/01/28 10:55:13;;;;;;;22.30;15.67;;;;;;;;;;5038822;28;20374;-84
2024/01/28 10:57:40;;;;;;;21.83;15.82;;;;;;;;;;5056257;28;20384;-83
2024/01/28 11:00:06;;;;;;;22.27;15.88;;;;;;;;;;5054971;28;21188;-83
2024/01/28 11:02:35;;;;;;;20.70;15.57;;;;;;;;;;5037306;28;20527;-83
2024/01/28 11:05:02;;;;;;;22.48;15.48;;;;;;;;;;5054610;28;20396;-84
2024/01/28 11:07:29;;;;;;;19.70;15.20;;;;;;;;;;5054626;28;20413;-84
2024/01/28 11:09:55;;;;;;;19.52;14.80;;;;;;;;;;5055522;28;20373;-84
2024/01/28 11:12:21;;;;;;;16.52;13.65;;;;;;;;;;5056049;28;20382;-83
2024/01/28 11:14:47;;;;;;;17.52;14.20;;;;;;;;;;5055397;28;20372;-83
2024/01/28 11:17:14;;;;;;;18.02;14.00;;;;;;;;;;5054902;28;20712;-83
2024/01/28 11:19:40;;;;;;;18.27;15.15;;;;;;;;;;5037457;28;20381;-83
2024/01/28 11:22:13;;;;;;;19.40;15.57;;;;;;;;;;5041624;28;20453;-82
2024/01/28 11:24:56;;;;;;;20.23;16.17;;;;;;;;;;5017278;28;20407;-83
2024/01/28 11:27:22;;;;;;;20.90;15.88;;;;;;;;;;5049725;28;20377;-83
2024/01/28 11:29:54;;;;;;;21.95;16.73;;;;;;;;;;5054715;28;20731;-83
2024/01/28 11:32:32;;;;;;;21.63;15.93;;;;;;;;;;5054693;28;20374;-83
2024/01/28 11:34:58;;;;;;;21.67;15.33;;;;;;;;;;5036327;28;20385;-83
2024/01/28 11:37:25;;;;;;;21.70;15.63;;;;;;;;;;5054507;28;20373;-82
2024/01/28 11:39:52;;;;;;;19.80;15.07;;;;;;;;;;5037016;28;20386;-83
2024/01/28 11:42:18;;;;;;;19.08;15.57;;;;;;;;;;5054185;28;20431;-83
2024/01/28 11:44:44;;;;;;;17.40;14.73;;;;;;;;;;5054726;28;20902;-83
2024/01/28 11:47:13;;;;;;;17.98;14.80;;;;;;;;;;5036671;28;20389;-84
2024/01/28 11:49:39;;;;;;;18.05;14.52;;;;;;;;;;5055025;28;20381;-83
2024/01/28 11:52:07;;;;;;;16.42;13.77;;;;;;;;;;5055560;28;20413;-84
2024/01/28 11:54:33;;;;;;;18.27;14.40;;;;;;;;;;5055374;28;20378;-83
2024/01/28 11:57:00;;;;;;;18.40;14.70;;;;;;;;;;5055286;28;20374;-84
2024/01/28 11:59:26;;;;;;;18.33;15.02;;;;;;;;;;5055118;28;20373;-83
2024/01/28 12:01:52;;;;;;;17.08;14.32;;;;;;;;;;5054846;28;20468;-83
2024/01/28 12:04:20;;;;;;;16.33;14.43;;;;;;;;;;5036768;28;20412;-83
2024/01/28 12:06:46;;;;;;;18.60;14.65;;;;;;;;;;5036914;28;20794;-85
2024/01/28 12:09:12;;;;;;;18.45;14.57;;;;;;;;;;5037094;28;20385;-82
2024/01/28 12:11:38;;;;;;;18.10;14.98;;;;;;;;;;5054076;28;20385;-83
2024/01/28 12:14:04;;;;;;;19.08;15.45;;;;;;;;;;5054595;28;20440;-83
2024/01/28 12:16:30;;;;;;;17.95;13.80;;;;;;;;;;5034258;28;20386;-83
2024/01/28 12:18:56;;;;;;;19.33;14.73;;;;;;;;;;5036305;28;20392;-83
2024/01/28 12:21:23;;;;;;;18.73;15.88;;;;;;;;;;5036556;28;20469;-83
2024/01/28 12:23:59;;;;;;;18.52;14.52;;;;;;;;;;5036579;28;20513;-83
2024/01/28 12:26:25;;;;;;;18.77;15.23;;;;;;;;;;5041324;28;20373;-83
2024/01/28 12:28:51;;;;;;;20.30;15.95;;;;;;;;;;5036457;28;20381;-83
2024/01/28 12:31:21;;;;;;;18.52;15.15;;;;;;;;;;5036731;28;20386;-83
2024/01/28 12:33:47;;;;;;;20.65;15.73;;;;;;;;;;5036577;28;20385;-83
2024/01/28 12:36:13;;;;;;;21.70;16.48;;;;;;;;;;5054888;28;20380;-83
2024/01/28 12:38:39;;;;;;;21.67;16.15;;;;;;;;;;5054218;28;20822;-83
2024/01/28 12:41:06;;;;;;;18.48;15.18;;;;;;;;;;5054608;28;20392;-83
2024/01/28 12:43:32;;;;;;;21.27;16.60;;;;;;;;;;5053783;28;20458;-84
2024/01/28 12:45:58;;;;;;;19.27;15.15;;;;;;;;;;5053452;28;20378;-83
2024/01/28 12:48:24;;;;;;;20.52;16.05;;;;;;;;;;5035173;28;20460;-83
2024/01/28 12:50:50;;;;;;;18.50;14.68;;;;;;;;;;5053382;28;20416;-83
2024/01/28 12:53:17;;;;;;;16.60;14.80;;;;;;;;;;5053489;28;20465;-83
2024/01/28 12:55:44;;;;;;;18.40;15.13;;;;;;;;;;5035496;28;20469;-82
2024/01/28 12:58:10;;;;;;;18.27;15.10;;;;;;;;;;5035456;28;20381;-83
2024/01/28 13:00:36;;;;;;;17.15;14.73;;;;;;;;;;5052784;28;20385;-82
2024/01/28 13:03:02;;;;;;;16.38;14.23;;;;;;;;;;5053037;28;20412;-83
2024/01/28 13:05:28;;;;;;;17.40;14.43;;;;;;;;;;5035686;28;20381;-83
2024/01/28 13:07:54;;;;;;;17.63;14.48;;;;;;;;;;5035700;28;20405;-83
2024/01/28 13:10:20;;;;;;;15.75;13.95;;;;;;;;;;5035356;28;20477;-82
2024/01/28 13:12:46;;;;;;;19.33;14.55;;;;;;;;;;5035101;28;20389;-81
2024/01/28 13:15:12;;;;;;;17.00;14.00;;;;;;;;;;5041412;28;20748;-81
2024/01/28 13:17:39;;;;;;;16.08;14.00;;;;;;;;;;5029673;28;20468;-80
2024/01/28 13:20:07;;;;;;;16.08;13.50;;;;;;;;;;5046862;28;20381;-83
2024/01/28 13:22:33;;;;;;;15.23;13.50;;;;;;;;;;5051053;28;20397;-81
2024/01/28 13:24:59;;;;;;;15.47;13.87;;;;;;;;;;5048668;28;20878;-81
2024/01/28 13:27:26;;;;;;;14.30;12.80;;;;;;;;;;5031550;28;20780;-79
2024/01/28 13:29:52;;;;;;;14.88;13.30;;;;;;;;;;5034499;28;20476;-79
2024/01/28 13:32:18;;;;;;;15.07;13.18;;;;;;;;;;5041257;28;20472;-80
2024/01/28 13:34:44;;;;;;;16.57;14.10;;;;;;;;;;5043592;28;20747;-79
2024/01/28 13:37:10;;;;;;;15.50;13.77;;;;;;;;;;5049358;28;20381;-79
2024/01/28 13:39:36;;;;;;;17.13;14.73;;;;;;;;;;5051770;28;20389;-80
2024/01/28 13:42:02;;;;;;;16.63;14.43;;;;;;;;;;5050012;28;20399;-81
2024/01/28 13:44:28;;;;;;;21.13;15.07;;;;;;;;;;5039218;28;20418;-81
2024/01/28 13:46:57;;;;;;;18.10;14.27;;;;;;;;;;5040437;28;20416;-80
2024/01/28 13:49:23;;;;;;;17.77;14.67;;;;;;;;;;5047216;28;20395;-79
2024/01/28 13:51:49;;;;;;;19.13;14.77;;;;;;;;;;5039135;28;20386;-79
2024/01/28 13:54:15;;;;;;;16.27;14.27;;;;;;;;;;5050307;28;20393;-79
2024/01/28 13:56:41;;;;;;;17.13;15.17;;;;;;;;;;5048837;28;20393;-80
2024/01/28 13:59:08;;;;;;;16.55;14.75;;;;;;;;;;5052863;28;20428;-80
2024/01/28 14:01:34;;;;;;;18.53;15.10;;;;;;;;;;5047906;28;20411;-78
2024/01/28 14:04:00;;;;;;;18.73;14.87;;;;;;;;;;5036375;28;20416;-80
2024/01/28 14:06:26;;;;;;;16.67;14.55;;;;;;;;;;5045229;28;20390;-79
2024/01/28 14:08:52;;;;;;;17.75;14.90;;;;;;;;;;5056669;28;20455;-80
2024/01/28 14:11:18;;;;;;;18.48;14.50;;;;;;;;;;5038756;28;20393;-80
2024/01/28 14:13:48;;;;;;;18.42;15.15;;;;;;;;;;5056658;28;20381;-78
2024/01/28 14:16:14;;;;;;;15.57;13.60;;;;;;;;;;5056448;28;20468;-79
2024/01/28 14:18:40;;;;;;;16.33;14.25;;;;;;;;;;5056212;28;20378;-80
2024/01/28 14:21:06;;;;;;;15.48;13.68;;;;;;;;;;5057546;28;20438;-77
2024/01/28 14:23:33;;;;;;;17.73;14.25;;;;;;;;;;5057163;28;20409;-79
2024/01/28 14:25:59;;;;;;;16.58;14.05;;;;;;;;;;5045778;28;20384;-79
2024/01/28 14:28:25;;;;;;;16.40;14.45;;;;;;;;;;5055436;28;20836;-79